createdAt,value
2023-01-04T00:00:42.940Z,89449.00
2023-01-04T00:01:42.890Z,89445.00
2023-01-04T00:02:43.125Z,89443.00
2023-01-04T00:03:42.904Z,89439.00
2023-01-04T00:04:42.744Z,89443.00
2023-01-04T00:05:42.724Z,89441.00
2023-01-04T00:06:42.680Z,89441.00
2023-01-04T00:07:42.669Z,89443.00
2023-01-04T00:08:42.602Z,89443.00
2023-01-04T00:09:42.556Z,89447.00
2023-01-04T00:10:42.540Z,89447.00
2023-01-04T00:11:42.488Z,89445.00
2023-01-04T00:12:42.456Z,89447.00
2023-01-04T00:13:42.439Z,89443.00
2023-01-04T00:14:42.376Z,89443.00
2023-01-04T00:15:42.343Z,89443.00
2023-01-04T00:16:42.383Z,89443.00
2023-01-04T00:17:42.317Z,89445.00
2023-01-04T00:18:42.224Z,89447.00
2023-01-04T00:19:42.233Z,89449.00
2023-01-04T00:20:42.140Z,89445.00
2023-01-04T00:21:42.134Z,89445.00
2023-01-04T00:22:42.138Z,89443.00
2023-01-04T00:23:42.087Z,89443.00
2023-01-04T00:24:42.061Z,89441.00
2023-01-04T00:25:42.013Z,89439.00
2023-01-04T00:26:41.934Z,89435.00
2023-01-04T00:27:41.916Z,89439.00
2023-01-04T00:28:41.917Z,89437.00
2023-01-04T00:29:42.425Z,89437.00
2023-01-04T00:30:41.860Z,89437.00
2023-01-04T00:31:41.800Z,89435.00
2023-01-04T00:32:41.734Z,89439.00
2023-01-04T00:33:41.747Z,89439.00
2023-01-04T00:34:41.695Z,89437.00
2023-01-04T00:35:46.415Z,89437.00
2023-01-04T00:36:42.595Z,89435.00
2023-01-04T00:37:44.591Z,89435.00
2023-01-04T00:38:42.535Z,89437.00
2023-01-04T00:39:41.514Z,89435.00
2023-01-04T00:40:41.462Z,89435.00
2023-01-04T00:42:42.415Z,89439.00
2023-01-04T00:43:41.407Z,89435.00
2023-01-04T00:44:41.341Z,89437.00
2023-01-04T00:45:41.283Z,89435.00
2023-01-04T00:46:41.316Z,89437.00
2023-01-04T00:47:41.239Z,89437.00
2023-01-04T00:48:43.020Z,89435.00
2023-01-04T00:49:41.137Z,89435.00
2023-01-04T00:50:41.121Z,89433.00
2023-01-04T00:51:41.051Z,89437.00
2023-01-04T00:52:41.020Z,89437.00
2023-01-04T00:53:40.996Z,89435.00
2023-01-04T00:54:40.956Z,89437.00
2023-01-04T00:55:40.907Z,89435.00
2023-01-04T00:56:40.889Z,89435.00
2023-01-04T00:57:40.837Z,89435.00
2023-01-04T00:58:40.810Z,89437.00
2023-01-04T00:59:40.769Z,89437.00
2023-01-04T01:00:40.760Z,89435.00
2023-01-04T01:01:40.917Z,89435.00
2023-01-04T01:02:40.874Z,89435.00
2023-01-04T01:03:40.736Z,89435.00
2023-01-04T01:04:40.573Z,89435.00
2023-01-04T01:05:40.540Z,89435.00
2023-01-04T01:06:40.513Z,89433.00
2023-01-04T01:07:40.473Z,89435.00
2023-01-04T01:08:40.424Z,89433.00
2023-01-04T01:09:40.403Z,89437.00
2023-01-04T01:10:40.344Z,89437.00
2023-01-04T01:11:40.336Z,89435.00
2023-01-04T01:12:40.269Z,89435.00
2023-01-04T01:13:40.224Z,89433.00
2023-01-04T01:14:40.203Z,89433.00
2023-01-04T01:15:40.159Z,89431.00
2023-01-04T01:17:10.077Z,89429.00
2023-01-04T01:17:41.075Z,89427.00
2023-01-04T01:18:40.021Z,89429.00
2023-01-04T01:19:39.988Z,89429.00
2023-01-04T01:20:39.966Z,89431.00
2023-01-04T01:21:39.913Z,89431.00
2023-01-04T01:22:39.872Z,89435.00
2023-01-04T01:23:39.838Z,89435.00
2023-01-04T01:24:39.797Z,89437.00
2023-01-04T01:25:39.766Z,89439.00
2023-01-04T01:26:39.723Z,89441.00
2023-01-04T01:27:39.706Z,89443.00
2023-01-04T01:28:39.645Z,89441.00
2023-01-04T01:29:39.622Z,89437.00
2023-01-04T01:30:39.561Z,89441.00
2023-01-04T01:31:39.588Z,89441.00
2023-01-04T01:32:39.494Z,89441.00
2023-01-04T01:33:39.434Z,89443.00
2023-01-04T01:34:39.402Z,89445.00
2023-01-04T01:35:39.369Z,89445.00
2023-01-04T01:36:39.323Z,89447.00
2023-01-04T01:37:39.277Z,89449.00
2023-01-04T01:38:39.238Z,89449.00
2023-01-04T01:39:39.199Z,89450.00
2023-01-04T01:40:39.145Z,89450.00
2023-01-04T01:41:39.124Z,89447.00
2023-01-04T01:42:39.072Z,89450.00
2023-01-04T01:43:39.034Z,89452.00
2023-01-04T01:44:39.003Z,89452.00
2023-01-04T01:45:38.972Z,89452.00
2023-01-04T01:46:38.933Z,89458.00
2023-01-04T01:47:38.877Z,89458.00
2023-01-04T01:48:38.852Z,89458.00
2023-01-04T01:49:38.817Z,89458.00
2023-01-04T01:50:38.763Z,89454.00
2023-01-04T01:51:38.736Z,89456.00
2023-01-04T01:52:38.680Z,89456.00
2023-01-04T01:53:38.658Z,89452.00
2023-01-04T01:54:38.610Z,89454.00
2023-01-04T01:55:38.586Z,89450.00
2023-01-04T01:56:38.524Z,89452.00
2023-01-04T01:57:38.509Z,89452.00
2023-01-04T01:58:38.443Z,89450.00
2023-01-04T01:59:38.391Z,89450.00
2023-01-04T02:00:38.348Z,89449.00
2023-01-04T02:01:38.385Z,89445.00
2023-01-04T02:02:38.422Z,89447.00
2023-01-04T02:03:38.254Z,89443.00
2023-01-04T02:04:38.225Z,89441.00
2023-01-04T02:05:38.171Z,89439.00
2023-01-04T02:06:38.108Z,89435.00
2023-01-04T02:07:38.092Z,89433.00
2023-01-04T02:08:38.032Z,89429.00
2023-01-04T02:09:38.000Z,89431.00
2023-01-04T02:10:37.964Z,89425.00
2023-01-04T02:11:37.933Z,89425.00
2023-01-04T02:12:37.905Z,89425.00
2023-01-04T02:13:37.855Z,89423.00
2023-01-04T02:14:37.824Z,89427.00
2023-01-04T02:15:37.848Z,89427.00
2023-01-04T02:16:37.793Z,89425.00
2023-01-04T02:17:37.700Z,89423.00
2023-01-04T02:18:37.669Z,89423.00
2023-01-04T02:19:37.606Z,89425.00
2023-01-04T02:20:37.595Z,89423.00
2023-01-04T02:21:37.535Z,89427.00
2023-01-04T02:22:37.521Z,89425.00
2023-01-04T02:23:38.454Z,89423.00
2023-01-04T02:24:37.404Z,89423.00
2023-01-04T02:25:37.387Z,89425.00
2023-01-04T02:26:37.336Z,89421.00
2023-01-04T02:27:37.311Z,89421.00
2023-01-04T02:28:37.267Z,89419.00
2023-01-04T02:29:37.211Z,89417.00
2023-01-04T02:30:37.178Z,89415.00
2023-01-04T02:31:37.226Z,89413.00
2023-01-04T02:32:37.086Z,89411.00
2023-01-04T02:33:37.055Z,89411.00
2023-01-04T02:34:37.018Z,89411.00
2023-01-04T02:35:36.974Z,89411.00
2023-01-04T02:36:36.938Z,89415.00
2023-01-04T02:37:36.877Z,89415.00
2023-01-04T02:38:36.836Z,89415.00
2023-01-04T02:39:36.812Z,89415.00
2023-01-04T02:40:36.746Z,89415.00
2023-01-04T02:41:36.703Z,89417.00
2023-01-04T02:42:36.665Z,89419.00
2023-01-04T02:43:36.614Z,89419.00
2023-01-04T02:44:36.587Z,89417.00
2023-01-04T02:45:36.575Z,89419.00
2023-01-04T02:46:36.543Z,89419.00
2023-01-04T02:47:36.417Z,89419.00
2023-01-04T02:48:36.380Z,89419.00
2023-01-04T02:49:36.340Z,89417.00
2023-01-04T02:50:36.398Z,89417.00
2023-01-04T02:51:36.250Z,89419.00
2023-01-04T02:52:36.215Z,89417.00
2023-01-04T02:53:36.183Z,89415.00
2023-01-04T02:54:36.163Z,89419.00
2023-01-04T02:55:36.091Z,89417.00
2023-01-04T02:56:36.112Z,89421.00
2023-01-04T02:57:36.020Z,89421.00
2023-01-04T02:58:35.981Z,89423.00
2023-01-04T02:59:35.964Z,89423.00
2023-01-04T03:00:35.887Z,89421.00
2023-01-04T03:01:35.987Z,89421.00
2023-01-04T03:02:36.059Z,89419.00
2023-01-04T03:03:35.922Z,89419.00
2023-01-04T03:04:35.741Z,89419.00
2023-01-04T03:05:35.690Z,89417.00
2023-01-04T03:06:35.666Z,89413.00
2023-01-04T03:07:35.625Z,89415.00
2023-01-04T03:08:35.651Z,89411.00
2023-01-04T03:09:35.555Z,89409.00
2023-01-04T03:10:35.519Z,89409.00
2023-01-04T03:11:35.524Z,89409.00
2023-01-04T03:12:35.485Z,89409.00
2023-01-04T03:13:35.405Z,89409.00
2023-01-04T03:14:35.369Z,89411.00
2023-01-04T03:15:35.349Z,89409.00
2023-01-04T03:16:35.360Z,89417.00
2023-01-04T03:17:35.282Z,89417.00
2023-01-04T03:18:35.244Z,89419.00
2023-01-04T03:19:35.971Z,89421.00
2023-01-04T03:20:35.143Z,89419.00
2023-01-04T03:21:35.123Z,89421.00
2023-01-04T03:22:35.067Z,89419.00
2023-01-04T03:23:35.018Z,89421.00
2023-01-04T03:24:35.015Z,89423.00
2023-01-04T03:25:34.955Z,89419.00
2023-01-04T03:26:34.935Z,89421.00
2023-01-04T03:27:34.930Z,89417.00
2023-01-04T03:28:34.852Z,89419.00
2023-01-04T03:29:34.809Z,89415.00
2023-01-04T03:30:34.783Z,89415.00
2023-01-04T03:31:34.848Z,89415.00
2023-01-04T03:32:34.713Z,89415.00
2023-01-04T03:33:34.675Z,89417.00
2023-01-04T03:34:34.644Z,89415.00
2023-01-04T03:35:34.599Z,89417.00
2023-01-04T03:36:34.592Z,89417.00
2023-01-04T03:37:34.519Z,89417.00
2023-01-04T03:38:34.490Z,89417.00
2023-01-04T03:39:34.464Z,89415.00
2023-01-04T03:40:34.431Z,89415.00
2023-01-04T03:41:34.381Z,89417.00
2023-01-04T03:42:34.358Z,89415.00
2023-01-04T03:43:34.302Z,89417.00
2023-01-04T03:44:34.269Z,89417.00
2023-01-04T03:45:34.235Z,89415.00
2023-01-04T03:46:34.257Z,89415.00
2023-01-04T03:47:34.167Z,89413.00
2023-01-04T03:48:34.128Z,89411.00
2023-01-04T03:49:34.116Z,89409.00
2023-01-04T03:50:34.061Z,89409.00
2023-01-04T03:51:34.031Z,89407.00
2023-01-04T03:52:33.999Z,89407.00
2023-01-04T03:53:33.964Z,89409.00
2023-01-04T03:54:34.014Z,89407.00
2023-01-04T03:55:33.896Z,89405.00
2023-01-04T03:56:33.860Z,89407.00
2023-01-04T03:57:33.869Z,89405.00
2023-01-04T03:58:33.799Z,89407.00
2023-01-04T03:59:33.770Z,89407.00
2023-01-04T04:00:33.863Z,89405.00
2023-01-04T04:01:33.838Z,89403.00
2023-01-04T04:02:33.676Z,89401.00
2023-01-04T04:03:33.661Z,89401.00
2023-01-04T04:04:33.625Z,89403.00
2023-01-04T04:05:33.577Z,89401.00
2023-01-04T04:06:33.559Z,89399.00
2023-01-04T04:07:33.537Z,89397.00
2023-01-04T04:08:33.504Z,89395.00
2023-01-04T04:09:33.459Z,89397.00
2023-01-04T04:10:33.440Z,89395.00
2023-01-04T04:11:33.406Z,89394.00
2023-01-04T04:12:33.379Z,89394.00
2023-01-04T04:13:33.333Z,89392.00
2023-01-04T04:14:33.282Z,89388.00
2023-01-04T04:15:33.267Z,89388.00
2023-01-04T04:16:33.264Z,89392.00
2023-01-04T04:17:33.188Z,89388.00
2023-01-04T04:18:33.137Z,89388.00
2023-01-04T04:19:33.093Z,89392.00
2023-01-04T04:20:33.057Z,89394.00
2023-01-04T04:21:33.030Z,89394.00
2023-01-04T04:22:33.007Z,89394.00
2023-01-04T04:23:32.953Z,89395.00
2023-01-04T04:24:32.932Z,89397.00
2023-01-04T04:25:32.885Z,89399.00
2023-01-04T04:26:32.831Z,89401.00
2023-01-04T04:27:32.843Z,89403.00
2023-01-04T04:28:32.751Z,89403.00
2023-01-04T04:29:32.708Z,89405.00
2023-01-04T04:30:32.708Z,89407.00
2023-01-04T04:31:32.731Z,89407.00
2023-01-04T04:32:32.631Z,89403.00
2023-01-04T04:33:32.566Z,89401.00
2023-01-04T04:34:32.541Z,89403.00
2023-01-04T04:35:32.535Z,89405.00
2023-01-04T04:36:32.534Z,89405.00
2023-01-04T04:37:32.456Z,89405.00
2023-01-04T04:38:32.421Z,89409.00
2023-01-04T04:39:32.389Z,89405.00
2023-01-04T04:40:32.341Z,89405.00
2023-01-04T04:41:32.325Z,89407.00
2023-01-04T04:42:32.280Z,89405.00
2023-01-04T04:43:32.241Z,89403.00
2023-01-04T04:44:32.227Z,89401.00
2023-01-04T04:45:32.226Z,89399.00
2023-01-04T04:46:32.156Z,89401.00
2023-01-04T04:47:32.133Z,89399.00
2023-01-04T04:48:32.112Z,89401.00
2023-01-04T04:49:32.073Z,89401.00
2023-01-04T04:50:32.042Z,89403.00
2023-01-04T04:51:31.997Z,89401.00
2023-01-04T04:52:31.969Z,89403.00
2023-01-04T04:53:31.947Z,89407.00
2023-01-04T04:54:31.936Z,89409.00
2023-01-04T04:55:31.877Z,89411.00
2023-01-04T04:56:31.832Z,89413.00
2023-01-04T04:57:31.790Z,89415.00
2023-01-04T04:58:31.762Z,89415.00
2023-01-04T04:59:31.722Z,89417.00
2023-01-04T05:00:31.701Z,89417.00
2023-01-04T05:01:31.820Z,89419.00
2023-01-04T05:02:31.836Z,89417.00
2023-01-04T05:03:31.634Z,89415.00
2023-01-04T05:04:31.547Z,89413.00
2023-01-04T05:05:31.514Z,89413.00
2023-01-04T05:06:31.487Z,89413.00
2023-01-04T05:07:31.473Z,89415.00
2023-01-04T05:08:31.450Z,89415.00
2023-01-04T05:09:31.391Z,89417.00
2023-01-04T05:10:31.371Z,89417.00
2023-01-04T05:11:31.333Z,89417.00
2023-01-04T05:12:31.318Z,89419.00
2023-01-04T05:13:31.272Z,89417.00
2023-01-04T05:14:31.258Z,89417.00
2023-01-04T05:15:31.221Z,89413.00
2023-01-04T05:16:31.288Z,89419.00
2023-01-04T05:17:31.138Z,89417.00
2023-01-04T05:18:31.113Z,89417.00
2023-01-04T05:19:31.089Z,89419.00
2023-01-04T05:20:31.054Z,89421.00
2023-01-04T05:21:31.010Z,89421.00
2023-01-04T05:22:30.977Z,89421.00
2023-01-04T05:23:30.945Z,89423.00
2023-01-04T05:24:30.894Z,89423.00
2023-01-04T05:25:30.866Z,89423.00
2023-01-04T05:26:30.815Z,89421.00
2023-01-04T05:27:30.748Z,89425.00
2023-01-04T05:28:30.716Z,89423.00
2023-01-04T05:29:30.687Z,89427.00
2023-01-04T05:30:30.682Z,89425.00
2023-01-04T05:31:30.628Z,89425.00
2023-01-04T05:32:30.600Z,89423.00
2023-01-04T05:33:30.541Z,89427.00
2023-01-04T05:34:30.504Z,89425.00
2023-01-04T05:35:30.456Z,89425.00
2023-01-04T05:36:30.423Z,89425.00
2023-01-04T05:37:30.413Z,89425.00
2023-01-04T05:38:30.380Z,89423.00
2023-01-04T05:46:30.122Z,89425.00
2023-01-04T06:19:26.711Z,89401.00
2023-01-04T06:20:05.686Z,89403.00
2023-01-04T06:21:05.656Z,89403.00
2023-01-04T06:22:05.614Z,89403.00
2023-01-04T06:23:05.576Z,89403.00
2023-01-04T06:24:05.535Z,89403.00
2023-01-04T06:25:05.500Z,89407.00
2023-01-04T06:26:05.436Z,89407.00
2023-01-04T06:27:05.403Z,89409.00
2023-01-04T06:28:05.354Z,89409.00
2023-01-04T06:29:05.314Z,89409.00
2023-01-04T06:30:05.366Z,89407.00
2023-01-04T06:31:05.264Z,89405.00
2023-01-04T06:32:05.195Z,89405.00
2023-01-04T06:33:05.197Z,89405.00
2023-01-04T06:34:05.151Z,89405.00
2023-01-04T06:35:05.082Z,89403.00
2023-01-04T06:36:05.021Z,89403.00
2023-01-04T06:37:04.992Z,89405.00
2023-01-04T06:38:04.975Z,89405.00
2023-01-04T06:39:04.923Z,89403.00
2023-01-04T06:40:04.879Z,89405.00
2023-01-04T06:41:04.863Z,89405.00
2023-01-04T06:42:06.915Z,89405.00
2023-01-04T06:43:04.794Z,89403.00
2023-01-04T06:44:04.744Z,89403.00
2023-01-04T06:45:04.733Z,89403.00
2023-01-04T06:46:04.749Z,89401.00
2023-01-04T06:47:04.639Z,89399.00
2023-01-04T06:48:09.089Z,89399.00
2023-01-04T06:49:04.558Z,89399.00
2023-01-04T06:50:04.573Z,89397.00
2023-01-04T06:51:04.489Z,89401.00
2023-01-04T06:52:04.440Z,89401.00
2023-01-04T06:53:04.469Z,89397.00
2023-01-04T06:54:04.474Z,89399.00
2023-01-04T06:55:04.335Z,89401.00
2023-01-04T06:56:04.286Z,89401.00
2023-01-04T06:57:04.246Z,89403.00
2023-01-04T06:58:04.214Z,89403.00
2023-01-04T06:59:04.183Z,89405.00
2023-01-04T07:00:04.134Z,89405.00
2023-01-04T07:01:04.130Z,89403.00
2023-01-04T07:02:04.169Z,89407.00
2023-01-04T07:03:13.609Z,89405.00
2023-01-04T07:04:05.077Z,89407.00
2023-01-04T07:05:04.171Z,89407.00
2023-01-04T07:06:03.948Z,89411.00
2023-01-04T07:07:03.909Z,89409.00
2023-01-04T07:08:07.917Z,89415.00
2023-01-04T07:09:03.814Z,89415.00
2023-01-04T07:10:09.206Z,89413.00
2023-01-04T07:11:04.748Z,89413.00
2023-01-04T07:12:04.454Z,89415.00
2023-01-04T07:13:03.664Z,89417.00
2023-01-04T07:14:03.610Z,89415.00
2023-01-04T07:15:03.591Z,89419.00
2023-01-04T07:16:03.595Z,89419.00
2023-01-04T07:17:03.495Z,89423.00
2023-01-04T07:18:03.459Z,89423.00
2023-01-04T07:19:03.420Z,89421.00
2023-01-04T07:20:03.382Z,89421.00
2023-01-04T07:21:03.455Z,89421.00
2023-01-04T07:22:03.334Z,89423.00
2023-01-04T07:23:03.272Z,89425.00
2023-01-04T07:24:03.233Z,89425.00
2023-01-04T07:25:03.199Z,89427.00
2023-01-04T07:26:03.162Z,89429.00
2023-01-04T07:27:03.159Z,89431.00
2023-01-04T07:28:03.119Z,89429.00
2023-01-04T07:29:03.036Z,89429.00
2023-01-04T07:30:02.997Z,89429.00
2023-01-04T07:31:03.031Z,89427.00
2023-01-04T07:32:02.953Z,89429.00
2023-01-04T07:33:02.913Z,89429.00
2023-01-04T07:34:02.872Z,89429.00
2023-01-04T07:35:02.835Z,89431.00
2023-01-04T07:36:02.767Z,89431.00
2023-01-04T07:37:02.735Z,89433.00
2023-01-04T07:38:02.738Z,89433.00
2023-01-04T07:39:02.711Z,89435.00
2023-01-04T07:40:02.639Z,89437.00
2023-01-04T07:41:02.587Z,89437.00
2023-01-04T07:42:02.567Z,89439.00
2023-01-04T07:43:02.508Z,89441.00
2023-01-04T07:44:02.501Z,89441.00
2023-01-04T07:45:02.446Z,89441.00
2023-01-04T07:46:02.478Z,89443.00
2023-01-04T07:47:02.375Z,89443.00
2023-01-04T07:48:02.318Z,89445.00
2023-01-04T07:49:02.278Z,89447.00
2023-01-04T07:50:02.244Z,89449.00
2023-01-04T07:51:02.208Z,89447.00
2023-01-04T07:52:02.158Z,89449.00
2023-01-04T07:53:02.120Z,89447.00
2023-01-04T07:54:02.104Z,89449.00
2023-01-04T10:21:56.949Z,89319.00
2023-01-04T11:13:55.886Z,89282.00
2023-01-04T11:14:55.896Z,89280.00
2023-01-04T11:15:56.044Z,89280.00
2023-01-04T11:16:55.948Z,89280.00
2023-01-04T11:17:55.952Z,89276.00
2023-01-04T11:18:55.967Z,89276.00
2023-01-04T11:19:55.998Z,89270.00
2023-01-04T11:20:55.962Z,89270.00
2023-01-04T11:21:56.004Z,89266.00
2023-01-04T11:22:56.034Z,89262.00
2023-01-04T11:23:59.676Z,89258.00
2023-01-04T11:25:57.025Z,89258.00
2023-01-04T11:26:55.935Z,89250.00
2023-01-04T11:27:55.893Z,89252.00
2023-01-04T11:28:55.836Z,89250.00
2023-01-04T11:29:55.803Z,89248.00
2023-01-04T11:30:55.759Z,89248.00
2023-01-04T11:31:55.810Z,89248.00
2023-01-04T11:32:55.707Z,89242.00
2023-01-04T11:33:55.678Z,89242.00
2023-01-04T11:34:55.623Z,89240.00
2023-01-04T11:35:55.579Z,89231.00
2023-01-04T11:36:55.527Z,89238.00
2023-01-04T11:37:55.500Z,89229.00
2023-01-04T11:38:55.466Z,89229.00
2023-01-04T11:39:55.415Z,89238.00
2023-01-04T11:40:55.404Z,89227.00
2023-01-04T11:42:02.321Z,89229.00
2023-01-04T11:42:57.051Z,89222.00
2023-01-04T11:43:55.265Z,89224.00
2023-01-04T11:44:55.212Z,89224.00
2023-01-04T11:45:55.264Z,89224.00
2023-01-04T11:46:55.140Z,89222.00
2023-01-04T11:47:55.139Z,89224.00
2023-01-04T11:48:55.049Z,89218.00
2023-01-04T11:49:55.028Z,89218.00
2023-01-04T11:50:54.986Z,89218.00
2023-01-04T11:51:54.932Z,89216.00
2023-01-04T11:52:54.881Z,89214.00
2023-01-04T11:53:54.878Z,89214.00
2023-01-04T11:54:54.814Z,89210.00
2023-01-04T11:55:54.761Z,89214.00
2023-01-04T11:56:54.744Z,89212.00
2023-01-04T11:57:54.681Z,89212.00
2023-01-04T11:58:54.654Z,89210.00
2023-01-04T11:59:54.641Z,89210.00
2023-01-04T12:00:54.607Z,89198.00
2023-01-04T12:01:54.617Z,89202.00
2023-01-04T12:03:02.558Z,89202.00
2023-01-04T12:03:55.493Z,89194.00
2023-01-04T12:04:54.443Z,89194.00
2023-01-04T12:05:54.377Z,89194.00
2023-01-04T12:06:54.332Z,89196.00
2023-01-04T12:07:54.291Z,89188.00
2023-01-04T12:08:54.257Z,89192.00
2023-01-04T12:09:54.207Z,89196.00
2023-01-04T12:10:54.180Z,89196.00
2023-01-04T12:11:54.108Z,89194.00
2023-01-04T12:12:54.077Z,89188.00
2023-01-04T12:13:54.027Z,89188.00
2023-01-04T12:14:53.989Z,89182.00
2023-01-04T12:15:53.931Z,89184.00
2023-01-04T12:16:53.899Z,89188.00
2023-01-04T12:17:53.844Z,89184.00
2023-01-04T12:18:53.831Z,89186.00
2023-01-04T12:19:53.746Z,89186.00
2023-01-04T12:20:53.716Z,89188.00
2023-01-04T12:21:53.673Z,89188.00
2023-01-04T12:22:53.630Z,89186.00
2023-01-04T12:23:53.574Z,89182.00
2023-01-04T12:25:00.091Z,89176.00
2023-01-04T12:25:54.510Z,89176.00
2023-01-04T12:26:53.456Z,89172.00
2023-01-04T12:27:53.420Z,89180.00
2023-01-04T12:28:53.368Z,89170.00
2023-01-04T12:29:53.339Z,89170.00
2023-01-04T12:30:53.307Z,89169.00
2023-01-04T12:31:53.302Z,89163.00
2023-01-04T12:32:53.215Z,89165.00
2023-01-04T12:33:53.187Z,89167.00
2023-01-04T12:34:53.128Z,89169.00
2023-01-04T12:35:53.096Z,89172.00
2023-01-04T12:36:53.071Z,89172.00
2023-01-04T12:37:53.020Z,89176.00
2023-01-04T12:38:53.035Z,89172.00
2023-01-04T12:39:52.924Z,89170.00
2023-01-04T12:40:52.899Z,89169.00
2023-01-04T12:41:52.842Z,89172.00
2023-01-04T12:42:52.838Z,89170.00
2023-01-04T12:43:52.749Z,89165.00
2023-01-04T12:44:52.740Z,89165.00
2023-01-04T12:45:52.721Z,89163.00
2023-01-04T12:46:52.631Z,89167.00
2023-01-04T12:47:52.569Z,89167.00
2023-01-04T12:48:52.565Z,89165.00
2023-01-04T12:49:52.505Z,89167.00
2023-01-04T12:51:07.348Z,89167.00
2023-01-04T12:52:29.063Z,89167.00
2023-01-04T12:53:53.332Z,89170.00
2023-01-04T12:54:52.298Z,89169.00
2023-01-04T12:55:52.260Z,89167.00
2023-01-04T12:56:52.242Z,89167.00
2023-01-04T12:57:52.190Z,89165.00
2023-01-04T12:59:24.259Z,89161.00
2023-01-04T12:59:53.119Z,89159.00
2023-01-04T13:00:52.069Z,89157.00
2023-01-04T13:02:52.995Z,89155.00
2023-01-04T13:11:51.667Z,89165.00
2023-01-04T13:12:51.686Z,89167.00
2023-01-04T13:13:51.596Z,89165.00
2023-01-04T13:14:51.552Z,89163.00
2023-01-04T13:15:51.519Z,89163.00
2023-01-04T13:16:51.515Z,89161.00
2023-01-04T13:17:51.457Z,89161.00
2023-01-04T13:18:51.435Z,89163.00
2023-01-04T13:19:51.401Z,89163.00
2023-01-04T13:20:51.336Z,89163.00
2023-01-04T13:21:51.289Z,89159.00
2023-01-04T13:22:51.251Z,89159.00
2023-01-04T13:23:51.208Z,89155.00
2023-01-04T13:24:51.180Z,89155.00
2023-01-04T13:25:51.114Z,89153.00
2023-01-04T13:26:51.113Z,89155.00
2023-01-04T13:27:51.054Z,89151.00
2023-01-04T13:28:56.341Z,89149.00
2023-01-04T13:29:51.955Z,89151.00
2023-01-04T13:30:50.951Z,89147.00
2023-01-04T13:31:50.963Z,89147.00
2023-01-04T13:33:24.115Z,89147.00
2023-01-04T13:33:51.775Z,89151.00
2023-01-04T13:34:50.734Z,89143.00
2023-01-04T13:35:50.723Z,89147.00
2023-01-04T13:36:50.665Z,89147.00
2023-01-04T13:37:50.605Z,89145.00
2023-01-04T13:38:50.569Z,89143.00
2023-01-04T13:39:50.549Z,89145.00
2023-01-04T13:40:50.490Z,89139.00
2023-01-04T13:41:50.446Z,89145.00
2023-01-04T13:42:50.441Z,89141.00
2023-01-04T13:43:50.368Z,89145.00
2023-01-04T13:45:18.555Z,89147.00
2023-01-04T13:45:51.309Z,89153.00
2023-01-04T13:46:50.271Z,89155.00
2023-01-04T13:47:50.215Z,89153.00
2023-01-04T13:48:50.267Z,89155.00
2023-01-04T13:49:50.131Z,89153.00
2023-01-04T13:50:50.073Z,89153.00
2023-01-04T13:51:50.039Z,89151.00
2023-01-04T13:53:03.453Z,89155.00
2023-01-04T13:53:50.933Z,89151.00
2023-01-04T13:54:49.909Z,89149.00
2023-01-04T13:55:49.852Z,89151.00
2023-01-04T13:56:55.208Z,89147.00
2023-01-04T13:57:50.782Z,89149.00
2023-01-04T13:58:49.740Z,89147.00
2023-01-04T13:59:49.674Z,89149.00
2023-01-04T14:00:49.644Z,89147.00
2023-01-04T14:01:49.702Z,89149.00
2023-01-04T14:02:49.656Z,89147.00
2023-01-04T14:03:49.565Z,89143.00
2023-01-04T14:04:49.479Z,89145.00
2023-01-04T14:05:49.438Z,89147.00
2023-01-04T14:06:49.384Z,89145.00
2023-01-04T14:07:49.318Z,89147.00
2023-01-04T14:08:49.291Z,89147.00
2023-01-04T14:09:49.240Z,89145.00
2023-01-04T14:10:49.197Z,89139.00
2023-01-04T14:11:49.135Z,89147.00
2023-01-04T14:12:49.087Z,89143.00
2023-01-04T14:13:49.062Z,89147.00
2023-01-04T14:14:48.997Z,89141.00
2023-01-04T14:15:49.026Z,89139.00
2023-01-04T14:16:48.933Z,89143.00
2023-01-04T14:17:48.928Z,89143.00
2023-01-04T14:18:48.824Z,89141.00
2023-01-04T14:19:48.926Z,89145.00
2023-01-04T14:20:48.760Z,89143.00
2023-01-04T14:21:48.706Z,89145.00
2023-01-04T14:22:48.669Z,89149.00
2023-01-04T14:23:48.632Z,89145.00
2023-01-04T14:25:18.526Z,89145.00
2023-01-04T14:25:49.548Z,89143.00
2023-01-04T14:26:48.519Z,89135.00
2023-01-04T14:27:48.456Z,89137.00
2023-01-04T14:29:49.389Z,89133.00
2023-01-04T14:30:48.388Z,89125.00
2023-01-04T14:31:48.334Z,89125.00
2023-01-04T14:32:48.248Z,89127.00
2023-01-04T14:33:48.236Z,89121.00
2023-01-04T14:34:48.164Z,89125.00
2023-01-04T14:35:49.938Z,89121.00
2023-01-04T14:36:48.077Z,89125.00
2023-01-04T14:37:48.016Z,89125.00
2023-01-04T14:38:47.982Z,89119.00
2023-01-04T14:39:47.951Z,89119.00
2023-01-04T14:40:47.911Z,89131.00
2023-01-04T14:41:47.867Z,89121.00
2023-01-04T14:42:47.817Z,89118.00
2023-01-04T14:43:47.764Z,89119.00
2023-01-04T14:44:47.753Z,89127.00
2023-01-04T14:45:47.680Z,89125.00
2023-01-04T14:46:47.804Z,89129.00
2023-01-04T14:47:47.591Z,89129.00
2023-01-04T14:48:47.554Z,89131.00
2023-01-04T14:49:47.506Z,89127.00
2023-01-04T14:50:47.477Z,89131.00
2023-01-04T14:51:47.472Z,89125.00
2023-01-04T14:52:47.381Z,89127.00
2023-01-04T14:53:47.353Z,89127.00
2023-01-04T14:54:47.328Z,89125.00
2023-01-04T14:55:47.265Z,89129.00
2023-01-04T14:56:47.221Z,89125.00
2023-01-04T14:57:47.197Z,89123.00
2023-01-04T14:58:47.163Z,89123.00
2023-01-04T14:59:47.125Z,89123.00
2023-01-04T15:00:47.072Z,89127.00
2023-01-04T15:01:47.152Z,89127.00
2023-01-04T15:02:47.206Z,89127.00
2023-01-04T15:03:47.035Z,89127.00
2023-01-04T15:04:46.923Z,89129.00
2023-01-04T15:05:46.901Z,89133.00
2023-01-04T15:06:46.823Z,89123.00
2023-01-04T15:07:46.798Z,89125.00
2023-01-04T15:08:46.740Z,89121.00
2023-01-04T15:09:46.707Z,89125.00
2023-01-04T15:10:46.669Z,89125.00
2023-01-04T15:11:46.598Z,89127.00
2023-01-04T15:12:46.561Z,89125.00
2023-01-04T15:13:46.512Z,89118.00
2023-01-04T15:14:46.471Z,89116.00
2023-01-04T15:15:46.477Z,89116.00
2023-01-04T15:16:46.396Z,89118.00
2023-01-04T15:17:46.363Z,89118.00
2023-01-04T15:18:46.334Z,89114.00
2023-01-04T15:19:46.296Z,89116.00
2023-01-04T15:20:46.246Z,89118.00
2023-01-04T15:21:46.196Z,89118.00
2023-01-04T15:22:46.149Z,89118.00
2023-01-04T15:23:46.117Z,89118.00
2023-01-04T15:24:46.066Z,89119.00
2023-01-04T15:25:46.015Z,89123.00
2023-01-04T15:26:45.976Z,89121.00
2023-01-04T15:27:45.936Z,89123.00
2023-01-04T15:28:45.884Z,89123.00
2023-01-04T15:29:45.869Z,89121.00
2023-01-04T15:30:45.815Z,89121.00
2023-01-04T15:31:45.813Z,89121.00
2023-01-04T15:32:45.729Z,89121.00
2023-01-04T15:33:45.674Z,89119.00
2023-01-04T15:34:47.104Z,89119.00
2023-01-04T15:35:45.613Z,89123.00
2023-01-04T15:36:45.555Z,89127.00
2023-01-04T15:37:45.514Z,89123.00
2023-01-04T15:38:45.459Z,89121.00
2023-01-04T15:39:45.424Z,89123.00
2023-01-04T15:40:45.376Z,89116.00
2023-01-04T15:41:45.353Z,89108.00
2023-01-04T15:42:45.305Z,89116.00
2023-01-04T15:43:45.219Z,89118.00
2023-01-04T15:44:45.188Z,89118.00
2023-01-04T15:45:45.162Z,89118.00
2023-01-04T15:46:45.166Z,89118.00
2023-01-04T15:47:45.074Z,89116.00
2023-01-04T15:48:45.025Z,89119.00
2023-01-04T15:49:44.986Z,89116.00
2023-01-04T15:50:44.953Z,89116.00
2023-01-04T15:51:44.927Z,89100.00
2023-01-04T15:52:44.867Z,89108.00
2023-01-04T15:53:44.836Z,89106.00